CheckWX is a tool to help pilots better visualize weather data.  It is not intended as a substitute for an official pre-flight weather briefing.

12:00:44 UTC

BIKF METAR
Keflavik International Airport
Reykjavík, Iceland
Current

31 mins ago

BIKF 251130Z 15024KT 4000 RA BKN003 BKN006 OVC015 07/07 Q1006
Observed
Mar-25 @ 11:30 UTC
Wind
  • 150° at 24 KTS
Visibility
4,007 meters
Flight Rules
LIFR
Conditions
Rain
Cloud Levels
  • Broken at 300' AGL
  • Broken at 600' AGL
  • Overcast at 1,500' AGL
Temperature
C / 45°F
Dewpoint
C / 45°F
Humidity
100%
Altimeter
29.7" Hg
Pressure
1005.92 hPa
Previous

1 hour ago

BIKF 251100Z 15025KT 4000 RA BKN004 BKN006 07/07 Q1007
Observed
Mar-25 @ 11:00 UTC
Wind
  • 150° at 25 KTS
Visibility
4,007 meters
Flight Rules
LIFR
Conditions
Rain
Cloud Levels
  • Broken at 400' AGL
  • Broken at 600' AGL
Temperature
C / 45°F
Dewpoint
C / 45°F
Humidity
100%
Altimeter
29.73" Hg
Pressure
1006.92 hPa
Previous

2 hours ago

BIKF 251030Z 15025G35KT 8000 -RA SCT004 BKN006 BKN017 07/07 Q1007
Observed
Mar-25 @ 10:30 UTC
Wind
  • 150° at 25 KTS
  • Gusting to 35 KTS
Visibility
7,998 meters
Flight Rules
IFR
Conditions
Light Rain
Cloud Levels
  • Scattered at 400' AGL
  • Broken at 600' AGL
  • Broken at 1,700' AGL
Temperature
C / 45°F
Dewpoint
C / 45°F
Humidity
100%
Altimeter
29.73" Hg
Pressure
1006.92 hPa